sensor_id;sensor_type;location;lat;lon;timestamp;pressure;altitude;pressure_sealevel;temperature;humidity
61119;BME280;51448;51.660;5.824;2022-07-18T00:01:15;102359.81;;;16.26;61.98
61119;BME280;51448;51.660;5.824;2022-07-18T00:03:43;102354.59;;;16.23;62.00
61119;BME280;51448;51.660;5.824;2022-07-18T00:06:10;102362.63;;;16.20;62.27
61119;BME280;51448;51.660;5.824;2022-07-18T00:08:38;102357.41;;;16.17;62.56
61119;BME280;51448;51.660;5.824;2022-07-18T00:11:05;102361.03;;;16.14;62.56
61119;BME280;51448;51.660;5.824;2022-07-18T00:13:33;102362.84;;;16.12;62.83
61119;BME280;51448;51.660;5.824;2022-07-18T00:16:00;102349.66;;;16.09;62.49
61119;BME280;51448;51.660;5.824;2022-07-18T00:18:28;102355.94;;;16.06;62.70
61119;BME280;51448;51.660;5.824;2022-07-18T00:20:56;102348.03;;;16.03;63.11
61119;BME280;51448;51.660;5.824;2022-07-18T00:23:23;102349.91;;;16.00;63.19
61119;BME280;51448;51.660;5.824;2022-07-18T00:25:51;102344.69;;;15.97;63.16
61119;BME280;51448;51.660;5.824;2022-07-18T00:28:18;102350.13;;;15.92;63.34
61119;BME280;51448;51.660;5.824;2022-07-18T00:30:46;102341.38;;;15.87;63.77
61119;BME280;51448;51.660;5.824;2022-07-18T00:33:14;102342.38;;;15.83;63.95
61119;BME280;51448;51.660;5.824;2022-07-18T00:35:42;102334.50;;;15.80;63.68
61119;BME280;51448;51.660;5.824;2022-07-18T00:38:09;102331.09;;;15.75;63.83
61119;BME280;51448;51.660;5.824;2022-07-18T00:40:37;102329.41;;;15.70;63.92
61119;BME280;51448;51.660;5.824;2022-07-18T00:43:04;102330.44;;;15.65;64.36
61119;BME280;51448;51.660;5.824;2022-07-18T00:45:37;102334.03;;;15.62;63.90
61119;BME280;51448;51.660;5.824;2022-07-18T00:48:07;102332.34;;;15.60;64.26
61119;BME280;51448;51.660;5.824;2022-07-18T00:50:36;102328.03;;;15.54;64.18
61119;BME280;51448;51.660;5.824;2022-07-18T00:53:05;102336.09;;;15.51;64.53
61119;BME280;51448;51.660;5.824;2022-07-18T00:55:33;102329.97;;;15.49;64.89
61119;BME280;51448;51.660;5.824;2022-07-18T00:58:01;102325.63;;;15.45;65.04
61119;BME280;51448;51.660;5.824;2022-07-18T01:00:28;102325.69;;;15.42;64.80
61119;BME280;51448;51.660;5.824;2022-07-18T01:03:15;102325.84;;;15.36;65.34
61119;BME280;51448;51.660;5.824;2022-07-18T01:05:42;102328.66;;;15.29;65.45
61119;BME280;51448;51.660;5.824;2022-07-18T01:08:10;102326.13;;;15.25;66.07
61119;BME280;51448;51.660;5.824;2022-07-18T01:10:38;102322.66;;;15.21;66.07
61119;BME280;51448;51.660;5.824;2022-07-18T01:13:05;102320.97;;;15.19;65.92
61119;BME280;51448;51.660;5.824;2022-07-18T01:15:33;102321.94;;;15.15;66.10
61119;BME280;51448;51.660;5.824;2022-07-18T01:18:03;102327.31;;;15.12;65.89
61119;BME280;51448;51.660;5.824;2022-07-18T01:20:31;102318.53;;;15.09;65.91
61119;BME280;51448;51.660;5.824;2022-07-18T01:22:59;102313.31;;;15.06;66.16
61119;BME280;51448;51.660;5.824;2022-07-18T01:25:27;102322.19;;;15.04;66.32
61119;BME280;51448;51.660;5.824;2022-07-18T01:27:55;102314.38;;;14.99;66.57
61119;BME280;51448;51.660;5.824;2022-07-18T01:30:24;102318.81;;;14.97;66.12
61119;BME280;51448;51.660;5.824;2022-07-18T01:33:00;102318.88;;;14.94;66.29
61119;BME280;51448;51.660;5.824;2022-07-18T01:35:30;102310.19;;;14.89;66.51
61119;BME280;51448;51.660;5.824;2022-07-18T01:38:00;102317.28;;;14.87;67.08
61119;BME280;51448;51.660;5.824;2022-07-18T01:40:30;102307.69;;;14.81;66.86
61119;BME280;51448;51.660;5.824;2022-07-18T01:42:57;102306.84;;;14.79;67.15
61119;BME280;51448;51.660;5.824;2022-07-18T01:45:26;102302.53;;;14.75;67.25
61119;BME280;51448;51.660;5.824;2022-07-18T01:47:54;102301.72;;;14.72;67.13
61119;BME280;51448;51.660;5.824;2022-07-18T01:50:21;102293.81;;;14.70;67.58
61119;BME280;51448;51.660;5.824;2022-07-18T01:52:49;102293.81;;;14.70;68.09
61119;BME280;51448;51.660;5.824;2022-07-18T01:55:16;102303.53;;;14.69;68.66
61119;BME280;51448;51.660;5.824;2022-07-18T01:57:44;102292.94;;;14.69;68.19
61119;BME280;51448;51.660;5.824;2022-07-18T02:00:12;102290.38;;;14.66;68.04
61119;BME280;51448;51.660;5.824;2022-07-18T02:02:40;102294.88;;;14.63;67.98
61119;BME280;51448;51.660;5.824;2022-07-18T02:05:08;102302.91;;;14.58;68.15
61119;BME280;51448;51.660;5.824;2022-07-18T02:07:38;102302.09;;;14.53;68.42
61119;BME280;51448;51.660;5.824;2022-07-18T02:10:10;102301.34;;;14.46;68.50
61119;BME280;51448;51.660;5.824;2022-07-18T02:12:41;102307.66;;;14.39;68.26
61119;BME280;51448;51.660;5.824;2022-07-18T02:15:10;102305.13;;;14.35;69.23
61119;BME280;51448;51.660;5.824;2022-07-18T02:17:39;102302.56;;;14.30;68.72
61119;BME280;51448;51.660;5.824;2022-07-18T02:20:09;102298.22;;;14.27;68.93
61119;BME280;51448;51.660;5.824;2022-07-18T02:22:39;102295.59;;;14.26;68.76
61119;BME280;51448;51.660;5.824;2022-07-18T02:25:07;102294.78;;;14.22;68.88
61119;BME280;51448;51.660;5.824;2022-07-18T02:27:35;102289.50;;;14.21;69.18
61119;BME280;51448;51.660;5.824;2022-07-18T02:30:04;102280.72;;;14.19;69.74
61119;BME280;51448;51.660;5.824;2022-07-18T02:32:33;102271.94;;;14.17;69.89
61119;BME280;51448;51.660;5.824;2022-07-18T02:35:06;102274.59;;;14.17;69.19
61119;BME280;51448;51.660;5.824;2022-07-18T02:37:36;102274.69;;;14.14;69.89
61119;BME280;51448;51.660;5.824;2022-07-18T02:40:10;102270.28;;;14.13;70.12
61119;BME280;51448;51.660;5.824;2022-07-18T02:42:39;102265.03;;;14.11;70.03
61119;BME280;51448;51.660;5.824;2022-07-18T02:45:07;102277.41;;;14.09;70.16
61119;BME280;51448;51.660;5.824;2022-07-18T02:47:36;102279.25;;;14.05;70.47
61119;BME280;51448;51.660;5.824;2022-07-18T02:50:04;102281.06;;;14.03;70.74
61119;BME280;51448;51.660;5.824;2022-07-18T02:52:32;102295.22;;;14.01;70.62
61119;BME280;51448;51.660;5.824;2022-07-18T02:55:00;102281.19;;;13.96;70.59
61119;BME280;51448;51.660;5.824;2022-07-18T02:57:28;102275.97;;;13.93;70.85
61119;BME280;51448;51.660;5.824;2022-07-18T02:59:56;102275.13;;;13.91;71.36
61119;BME280;51448;51.660;5.824;2022-07-18T03:02:23;102271.59;;;13.90;71.48
61119;BME280;51448;51.660;5.824;2022-07-18T03:04:51;102268.09;;;13.88;71.64
61119;BME280;51448;51.660;5.824;2022-07-18T03:07:19;102269.03;;;13.87;71.59
61119;BME280;51448;51.660;5.824;2022-07-18T03:09:46;102265.50;;;13.86;71.61
61119;BME280;51448;51.660;5.824;2022-07-18T03:12:14;102269.91;;;13.86;71.48
61119;BME280;51448;51.660;5.824;2022-07-18T03:14:42;102270.81;;;13.85;71.26
61119;BME280;51448;51.660;5.824;2022-07-18T03:17:09;102263.78;;;13.84;71.44
61119;BME280;51448;51.660;5.824;2022-07-18T03:19:37;102264.69;;;13.83;71.75
61119;BME280;51448;51.660;5.824;2022-07-18T03:22:05;102262.94;;;13.82;71.78
61119;BME280;51448;51.660;5.824;2022-07-18T03:24:32;102266.50;;;13.81;71.73
61119;BME280;51448;51.660;5.824;2022-07-18T03:27:00;102268.28;;;13.79;72.21
61119;BME280;51448;51.660;5.824;2022-07-18T03:29:28;102263.00;;;13.79;72.27
61119;BME280;51448;51.660;5.824;2022-07-18T03:31:56;102261.25;;;13.78;71.93
61119;BME280;51448;51.660;5.824;2022-07-18T03:34:24;102266.53;;;13.78;72.34
61119;BME280;51448;51.660;5.824;2022-07-18T03:36:52;102257.75;;;13.76;72.10
61119;BME280;51448;51.660;5.824;2022-07-18T03:39:19;102250.75;;;13.75;71.85
61119;BME280;51448;51.660;5.824;2022-07-18T03:41:47;102248.97;;;13.74;72.16
61119;BME280;51448;51.660;5.824;2022-07-18T03:44:14;102247.25;;;13.73;72.41
61119;BME280;51448;51.660;5.824;2022-07-18T03:46:42;102252.53;;;13.73;72.77
61119;BME280;51448;51.660;5.824;2022-07-18T03:49:10;102237.56;;;13.72;72.60
61119;BME280;51448;51.660;5.824;2022-07-18T03:51:37;102244.63;;;13.71;72.73
61119;BME280;51448;51.660;5.824;2022-07-18T03:54:05;102249.91;;;13.73;72.80
61119;BME280;51448;51.660;5.824;2022-07-18T03:56:36;102248.13;;;13.72;72.36
61119;BME280;51448;51.660;5.824;2022-07-18T03:59:04;102247.25;;;13.73;72.68
61119;BME280;51448;51.660;5.824;2022-07-18T04:01:32;102239.34;;;13.71;72.75
61119;BME280;51448;51.660;5.824;2022-07-18T04:03:59;102232.28;;;13.72;73.09
61119;BME280;51448;51.660;5.824;2022-07-18T04:06:27;102236.66;;;13.74;72.90
61119;BME280;51448;51.660;5.824;2022-07-18T04:08:55;102235.75;;;13.75;73.14
61119;BME280;51448;51.660;5.824;2022-07-18T04:11:22;102225.97;;;13.80;73.51
61119;BME280;51448;51.660;5.824;2022-07-18T04:13:53;102232.03;;;13.85;73.79
61119;BME280;51448;51.660;5.824;2022-07-18T04:16:22;102229.28;;;13.90;73.60
61119;BME280;51448;51.660;5.824;2022-07-18T04:18:50;102230.06;;;13.97;74.11
61119;BME280;51448;51.660;5.824;2022-07-18T04:21:17;102243.16;;;14.03;73.80
61119;BME280;51448;51.660;5.824;2022-07-18T04:23:45;102239.53;;;14.07;74.01
61119;BME280;51448;51.660;5.824;2022-07-18T04:26:13;102238.59;;;14.11;73.79
61119;BME280;51448;51.660;5.824;2022-07-18T04:28:40;102237.63;;;14.15;73.64
61119;BME280;51448;51.660;5.824;2022-07-18T04:31:08;102238.47;;;14.17;73.49
61119;BME280;51448;51.660;5.824;2022-07-18T04:33:35;102228.75;;;14.16;73.24
61119;BME280;51448;51.660;5.824;2022-07-18T04:36:03;102241.09;;;14.17;73.55
61119;BME280;51448;51.660;5.824;2022-07-18T04:38:31;102234.03;;;14.18;73.74
61119;BME280;51448;51.660;5.824;2022-07-18T04:41:01;102225.16;;;14.19;73.59
61119;BME280;51448;51.660;5.824;2022-07-18T04:43:28;102224.25;;;14.21;73.63
61119;BME280;51448;51.660;5.824;2022-07-18T04:45:56;102217.09;;;14.25;73.63
61119;BME280;51448;51.660;5.824;2022-07-18T04:48:24;102217.88;;;14.30;73.63
61119;BME280;51448;51.660;5.824;2022-07-18T04:50:51;102213.31;;;14.37;73.61
61119;BME280;51448;51.660;5.824;2022-07-18T04:53:19;102225.28;;;14.56;73.73
61119;BME280;51448;51.660;5.824;2022-07-18T04:55:46;102221.97;;;14.85;72.66
61119;BME280;51448;51.660;5.824;2022-07-18T04:58:14;102226.56;;;15.13;73.26
61119;BME280;51448;51.660;5.824;2022-07-18T05:00:42;102225.88;;;15.41;73.22
61119;BME280;51448;51.660;5.824;2022-07-18T05:03:09;102221.56;;;15.69;72.81
61119;BME280;51448;51.660;5.824;2022-07-18T05:05:37;102208.56;;;15.93;72.79
61119;BME280;51448;51.660;5.824;2022-07-18T05:08:05;102217.72;;;16.14;72.13
61119;BME280;51448;51.660;5.824;2022-07-18T05:10:33;102221.69;;;16.29;71.46
61119;BME280;51448;51.660;5.824;2022-07-18T05:13:01;102217.91;;;16.36;70.99
61119;BME280;51448;51.660;5.824;2022-07-18T05:15:28;102224.88;;;16.40;70.57
61119;BME280;51448;51.660;5.824;2022-07-18T05:17:56;102226.63;;;16.41;70.58
61119;BME280;51448;51.660;5.824;2022-07-18T05:20:25;102223.03;;;16.42;70.48
61119;BME280;51448;51.660;5.824;2022-07-18T05:22:53;102222.09;;;16.45;70.40
61119;BME280;51448;51.660;5.824;2022-07-18T05:25:22;102214.06;;;16.46;70.15
61119;BME280;51448;51.660;5.824;2022-07-18T05:27:51;102213.16;;;16.47;70.09
61119;BME280;51448;51.660;5.824;2022-07-18T05:30:20;102209.53;;;16.50;70.03
61119;BME280;51448;51.660;5.824;2022-07-18T05:32:48;102212.09;;;16.53;70.05
61119;BME280;51448;51.660;5.824;2022-07-18T05:35:16;102211.97;;;16.58;69.85
61119;BME280;51448;51.660;5.824;2022-07-18T05:37:45;102214.41;;;16.64;69.97
61119;BME280;51448;51.660;5.824;2022-07-18T05:40:14;102215.00;;;16.74;69.87
61119;BME280;51448;51.660;5.824;2022-07-18T05:42:42;102211.22;;;16.82;69.93
61119;BME280;51448;51.660;5.824;2022-07-18T05:45:21;102214.47;;;16.91;69.81
61119;BME280;51448;51.660;5.824;2022-07-18T05:47:51;102212.31;;;17.02;69.79
61119;BME280;51448;51.660;5.824;2022-07-18T05:50:21;102210.25;;;17.12;69.48
61119;BME280;51448;51.660;5.824;2022-07-18T05:52:49;102210.81;;;17.21;69.33
61119;BME280;51448;51.660;5.824;2022-07-18T05:55:17;102213.13;;;17.30;69.21
61119;BME280;51448;51.660;5.824;2022-07-18T05:57:45;102214.56;;;17.41;69.10
61119;BME280;51448;51.660;5.824;2022-07-18T06:00:13;102216.84;;;17.52;68.49
61119;BME280;51448;51.660;5.824;2022-07-18T06:02:42;102217.38;;;17.61;68.61
61119;BME280;51448;51.660;5.824;2022-07-18T06:05:10;102214.34;;;17.72;68.99
61119;BME280;51448;51.660;5.824;2022-07-18T06:07:54;102218.28;;;17.87;68.58
61119;BME280;51448;51.660;5.824;2022-07-18T06:10:25;102215.78;;;18.06;68.28
61119;BME280;51448;51.660;5.824;2022-07-18T06:12:55;102213.41;;;18.22;68.07
61119;BME280;51448;51.660;5.824;2022-07-18T06:15:23;102215.44;;;18.39;68.25
61119;BME280;51448;51.660;5.824;2022-07-18T06:17:51;102220.91;;;18.58;67.53
61119;BME280;51448;51.660;5.824;2022-07-18T06:20:19;102213.16;;;18.74;67.49
61119;BME280;51448;51.660;5.824;2022-07-18T06:22:47;102211.69;;;18.88;66.82
61119;BME280;51448;51.660;5.824;2022-07-18T06:25:14;102204.94;;;19.02;66.64
61119;BME280;51448;51.660;5.824;2022-07-18T06:27:42;102207.88;;;19.16;65.86
61119;BME280;51448;51.660;5.824;2022-07-18T06:30:10;102203.91;;;19.26;65.50
61119;BME280;51448;51.660;5.824;2022-07-18T06:32:38;102202.56;;;19.37;65.24
61119;BME280;51448;51.660;5.824;2022-07-18T06:35:07;102200.97;;;19.53;64.92
61119;BME280;51448;51.660;5.824;2022-07-18T06:37:36;102194.94;;;19.68;63.77
61119;BME280;51448;51.660;5.824;2022-07-18T06:40:04;102191.56;;;19.85;63.36
61119;BME280;51448;51.660;5.824;2022-07-18T06:42:33;102191.56;;;20.04;62.88
61119;BME280;51448;51.660;5.824;2022-07-18T06:45:02;102185.19;;;20.26;62.81
61119;BME280;51448;51.660;5.824;2022-07-18T06:47:39;102171.63;;;20.49;62.06
61119;BME280;51448;51.660;5.824;2022-07-18T06:50:07;102175.91;;;20.71;61.56
61119;BME280;51448;51.660;5.824;2022-07-18T06:52:37;102177.53;;;20.93;61.45
61119;BME280;51448;51.660;5.824;2022-07-18T06:55:07;102177.06;;;21.19;61.35
61119;BME280;51448;51.660;5.824;2022-07-18T06:57:36;102177.53;;;21.45;60.97
61119;BME280;51448;51.660;5.824;2022-07-18T07:00:05;102176.25;;;21.69;59.30
61119;BME280;51448;51.660;5.824;2022-07-18T07:02:40;102183.91;;;21.93;59.26
61119;BME280;51448;51.660;5.824;2022-07-18T07:05:09;102184.25;;;22.19;59.58
61119;BME280;51448;51.660;5.824;2022-07-18T07:07:39;102190.03;;;22.44;58.12
61119;BME280;51448;51.660;5.824;2022-07-18T07:10:15;102191.47;;;22.66;57.13
61119;BME280;51448;51.660;5.824;2022-07-18T07:12:47;102191.09;;;22.88;57.00
61119;BME280;51448;51.660;5.824;2022-07-18T07:15:21;102188.81;;;23.12;56.61
61119;BME280;51448;51.660;5.824;2022-07-18T07:17:51;102185.00;;;23.30;55.83
61119;BME280;51448;51.660;5.824;2022-07-18T07:20:19;102184.06;;;23.46;55.87
61119;BME280;51448;51.660;5.824;2022-07-18T07:22:53;102180.06;;;23.67;53.91
61119;BME280;51448;51.660;5.824;2022-07-18T07:25:24;102182.31;;;23.89;54.83
61119;BME280;51448;51.660;5.824;2022-07-18T07:27:53;102181.59;;;24.15;54.41
61119;BME280;51448;51.660;5.824;2022-07-18T07:30:21;102178.28;;;24.38;54.38
61119;BME280;51448;51.660;5.824;2022-07-18T07:32:49;102180.53;;;24.59;54.26
61119;BME280;51448;51.660;5.824;2022-07-18T07:35:19;102175.59;;;24.80;53.08
61119;BME280;51448;51.660;5.824;2022-07-18T07:37:56;102175.94;;;25.01;53.57
61119;BME280;51448;51.660;5.824;2022-07-18T07:40:27;102188.94;;;25.21;53.23
61119;BME280;51448;51.660;5.824;2022-07-18T07:43:09;102180.00;;;25.46;52.75
61119;BME280;51448;51.660;5.824;2022-07-18T07:45:39;102176.88;;;25.65;51.67
61119;BME280;51448;51.660;5.824;2022-07-18T07:48:08;102173.84;;;25.83;51.07
61119;BME280;51448;51.660;5.824;2022-07-18T07:50:36;102170.81;;;26.00;50.63
61119;BME280;51448;51.660;5.824;2022-07-18T07:53:03;102156.97;;;26.18;50.88
61119;BME280;51448;51.660;5.824;2022-07-18T07:55:31;102154.63;;;26.37;51.06
61119;BME280;51448;51.660;5.824;2022-07-18T07:57:59;102138.91;;;26.55;50.85
61119;BME280;51448;51.660;5.824;2022-07-18T08:00:27;102141.72;;;26.66;50.42
61119;BME280;51448;51.660;5.824;2022-07-18T08:03:00;102137.72;;;26.83;49.20
61119;BME280;51448;51.660;5.824;2022-07-18T08:05:32;102137.50;;;26.98;48.68
61119;BME280;51448;51.660;5.824;2022-07-18T08:08:01;102127.47;;;27.11;48.49
61119;BME280;51448;51.660;5.824;2022-07-18T08:10:30;102129.00;;;27.26;48.04
61119;BME280;51448;51.660;5.824;2022-07-18T08:12:57;102133.19;;;27.42;47.57
61119;BME280;51448;51.660;5.824;2022-07-18T08:15:25;102145.47;;;27.57;47.04
61119;BME280;51448;51.660;5.824;2022-07-18T08:17:54;102150.03;;;27.68;47.07
61119;BME280;51448;51.660;5.824;2022-07-18T08:20:21;102155.44;;;27.79;46.41
61119;BME280;51448;51.660;5.824;2022-07-18T08:22:56;102161.84;;;27.89;45.79
61119;BME280;51448;51.660;5.824;2022-07-18T08:25:30;102149.16;;;28.01;44.78
61119;BME280;51448;51.660;5.824;2022-07-18T08:28:00;102145.72;;;28.11;44.27
61119;BME280;51448;51.660;5.824;2022-07-18T08:30:29;102156.88;;;28.17;44.57
61119;BME280;51448;51.660;5.824;2022-07-18T08:32:58;102146.78;;;28.31;45.24
61119;BME280;51448;51.660;5.824;2022-07-18T08:35:27;102154.47;;;28.46;44.99
61119;BME280;51448;51.660;5.824;2022-07-18T08:37:55;102154.69;;;28.66;44.29
61119;BME280;51448;51.660;5.824;2022-07-18T08:40:23;102154.38;;;28.80;43.31
61119;BME280;51448;51.660;5.824;2022-07-18T08:42:53;102157.41;;;28.87;41.66
61119;BME280;51448;51.660;5.824;2022-07-18T08:45:43;102158.97;;;28.89;42.94
61119;BME280;51448;51.660;5.824;2022-07-18T08:48:16;102154.28;;;28.92;40.02
61119;BME280;51448;51.660;5.824;2022-07-18T08:50:45;102152.19;;;28.95;40.15
61119;BME280;51448;51.660;5.824;2022-07-18T08:53:16;102152.25;;;29.05;40.57
61119;BME280;51448;51.660;5.824;2022-07-18T08:55:44;102152.22;;;29.16;40.32
61119;BME280;51448;51.660;5.824;2022-07-18T08:58:14;102148.72;;;29.25;39.31
61119;BME280;51448;51.660;5.824;2022-07-18T09:01:04;102134.63;;;29.32;40.51
61119;BME280;51448;51.660;5.824;2022-07-18T09:03:33;102138.50;;;29.39;39.58
61119;BME280;51448;51.660;5.824;2022-07-18T09:06:11;102137.13;;;29.44;38.96
61119;BME280;51448;51.660;5.824;2022-07-18T09:08:57;102131.88;;;29.53;39.51
61119;BME280;51448;51.660;5.824;2022-07-18T09:11:27;102132.91;;;29.61;39.21
61119;BME280;51448;51.660;5.824;2022-07-18T09:14:35;102135.28;;;29.76;39.62
61119;BME280;51448;51.660;5.824;2022-07-18T09:20:09;102138.88;;;29.86;37.95
61119;BME280;51448;51.660;5.824;2022-07-18T09:22:42;102131.63;;;29.86;37.66
61119;BME280;51448;51.660;5.824;2022-07-18T09:25:18;102151.16;;;29.90;37.95
61119;BME280;51448;51.660;5.824;2022-07-18T09:27:50;102144.47;;;29.94;37.43
61119;BME280;51448;51.660;5.824;2022-07-18T09:30:26;102140.47;;;29.98;37.27
61119;BME280;51448;51.660;5.824;2022-07-18T09:35:31;102147.09;;;30.15;37.20
61119;BME280;51448;51.660;5.824;2022-07-18T09:38:20;102145.66;;;30.21;36.87
61119;BME280;51448;51.660;5.824;2022-07-18T09:40:51;102148.97;;;30.24;36.34
61119;BME280;51448;51.660;5.824;2022-07-18T09:43:22;102148.31;;;30.32;37.18
61119;BME280;51448;51.660;5.824;2022-07-18T09:45:53;102148.88;;;30.45;36.54
61119;BME280;51448;51.660;5.824;2022-07-18T09:48:24;102145.44;;;30.53;35.77
61119;BME280;51448;51.660;5.824;2022-07-18T09:53:30;102142.16;;;30.59;36.12
61119;BME280;51448;51.660;5.824;2022-07-18T09:56:06;102137.44;;;30.61;36.20
61119;BME280;51448;51.660;5.824;2022-07-18T09:58:37;102139.44;;;30.69;35.21
61119;BME280;51448;51.660;5.824;2022-07-18T10:01:11;102143.16;;;30.78;35.83
61119;BME280;51448;51.660;5.824;2022-07-18T10:03:39;102146.00;;;30.86;35.31
61119;BME280;51448;51.660;5.824;2022-07-18T10:06:07;102143.47;;;30.94;35.28
61119;BME280;51448;51.660;5.824;2022-07-18T10:08:35;102146.44;;;31.01;35.45
61119;BME280;51448;51.660;5.824;2022-07-18T10:11:06;102133.75;;;31.01;35.61
61119;BME280;51448;51.660;5.824;2022-07-18T10:13:36;102136.59;;;31.10;35.21
61119;BME280;51448;51.660;5.824;2022-07-18T10:16:05;102127.09;;;31.23;35.29
61119;BME280;51448;51.660;5.824;2022-07-18T10:18:35;102126.59;;;31.38;35.08
61119;BME280;51448;51.660;5.824;2022-07-18T10:21:13;102122.31;;;31.55;34.48
61119;BME280;51448;51.660;5.824;2022-07-18T10:23:47;102130.56;;;31.63;34.92
61119;BME280;51448;51.660;5.824;2022-07-18T10:31:27;102124.34;;;31.98;33.55
61119;BME280;51448;51.660;5.824;2022-07-18T10:36:35;102125.56;;;31.86;33.89
61119;BME280;51448;51.660;5.824;2022-07-18T10:39:13;102131.63;;;31.80;33.99
61119;BME280;51448;51.660;5.824;2022-07-18T10:57:43;102110.56;;;32.27;33.25
61119;BME280;51448;51.660;5.824;2022-07-18T11:00:35;102114.22;;;32.36;33.52
61119;BME280;51448;51.660;5.824;2022-07-18T11:05:45;102117.81;;;32.55;33.28
61119;BME280;51448;51.660;5.824;2022-07-18T11:08:20;102113.94;;;32.57;32.89
61119;BME280;51448;51.660;5.824;2022-07-18T11:16:00;102110.09;;;32.86;33.27
61119;BME280;51448;51.660;5.824;2022-07-18T11:19:19;102108.25;;;32.95;32.52
61119;BME280;51448;51.660;5.824;2022-07-18T11:24:08;102103.34;;;32.98;32.69
61119;BME280;51448;51.660;5.824;2022-07-18T11:26:46;102101.69;;;33.05;31.98
61119;BME280;51448;51.660;5.824;2022-07-18T11:29:17;102097.50;;;33.11;32.49
61119;BME280;51448;51.660;5.824;2022-07-18T11:31:53;102093.97;;;33.19;32.10
61119;BME280;51448;51.660;5.824;2022-07-18T11:34:24;102089.56;;;33.26;31.54
61119;BME280;51448;51.660;5.824;2022-07-18T11:37:13;102083.31;;;33.34;31.79
61119;BME280;51448;51.660;5.824;2022-07-18T11:39:40;102083.50;;;33.40;31.23
61119;BME280;51448;51.660;5.824;2022-07-18T11:42:09;102086.06;;;33.42;31.04
61119;BME280;51448;51.660;5.824;2022-07-18T11:44:39;102079.28;;;33.46;31.24
61119;BME280;51448;51.660;5.824;2022-07-18T11:47:10;102076.59;;;33.54;31.47
61119;BME280;51448;51.660;5.824;2022-07-18T11:49:39;102075.94;;;33.60;31.57
61119;BME280;51448;51.660;5.824;2022-07-18T11:52:07;102073.56;;;33.65;30.91
61119;BME280;51448;51.660;5.824;2022-07-18T11:54:35;102069.50;;;33.70;30.97
61119;BME280;51448;51.660;5.824;2022-07-18T11:57:03;102069.50;;;33.70;30.09
61119;BME280;51448;51.660;5.824;2022-07-18T11:59:41;102065.94;;;33.77;31.09
61119;BME280;51448;51.660;5.824;2022-07-18T12:02:11;102065.13;;;33.85;31.22
61119;BME280;51448;51.660;5.824;2022-07-18T12:04:40;102061.72;;;33.91;30.55
61119;BME280;51448;51.660;5.824;2022-07-18T12:07:18;102059.69;;;33.93;30.97
61119;BME280;51448;51.660;5.824;2022-07-18T12:09:48;102066.50;;;33.97;30.78
61119;BME280;51448;51.660;5.824;2022-07-18T12:12:19;102060.38;;;34.03;30.00
61119;BME280;51448;51.660;5.824;2022-07-18T12:14:57;102058.34;;;34.05;29.92
61119;BME280;51448;51.660;5.824;2022-07-18T12:17:29;102059.03;;;34.07;29.67
61119;BME280;51448;51.660;5.824;2022-07-18T12:23:05;102046.75;;;34.12;29.75
61119;BME280;51448;51.660;5.824;2022-07-18T12:25:43;102042.84;;;34.14;29.81
61119;BME280;51448;51.660;5.824;2022-07-18T12:28:27;102053.94;;;34.21;28.71
61119;BME280;51448;51.660;5.824;2022-07-18T12:30:55;102044.72;;;34.22;29.14
61119;BME280;51448;51.660;5.824;2022-07-18T12:33:27;102046.94;;;34.26;29.27
61119;BME280;51448;51.660;5.824;2022-07-18T12:35:59;102047.28;;;34.32;28.90
61119;BME280;51448;51.660;5.824;2022-07-18T12:38:28;102041.84;;;34.32;28.81
61119;BME280;51448;51.660;5.824;2022-07-18T12:40:58;102044.22;;;34.35;28.13
61119;BME280;51448;51.660;5.824;2022-07-18T12:43:31;102034.66;;;34.39;28.57
61119;BME280;51448;51.660;5.824;2022-07-18T12:46:07;102046.94;;;34.51;29.22
61119;BME280;51448;51.660;5.824;2022-07-18T12:48:37;102036.00;;;34.59;28.68
61119;BME280;51448;51.660;5.824;2022-07-18T12:51:08;102034.31;;;34.66;29.03
61119;BME280;51448;51.660;5.824;2022-07-18T12:53:39;102033.28;;;34.76;28.45
61119;BME280;51448;51.660;5.824;2022-07-18T12:56:09;102030.69;;;34.82;27.68
61119;BME280;51448;51.660;5.824;2022-07-18T12:58:37;102028.47;;;34.86;27.60
61119;BME280;51448;51.660;5.824;2022-07-18T13:01:04;102026.56;;;34.86;28.11
61119;BME280;51448;51.660;5.824;2022-07-18T13:03:35;102024.69;;;34.95;28.25
61119;BME280;51448;51.660;5.824;2022-07-18T13:06:03;102023.28;;;35.08;28.61
61119;BME280;51448;51.660;5.824;2022-07-18T13:08:31;102024.81;;;35.18;27.12
61119;BME280;51448;51.660;5.824;2022-07-18T13:10:59;102019.66;;;35.23;27.05
61119;BME280;51448;51.660;5.824;2022-07-18T13:13:27;102010.44;;;35.24;26.42
61119;BME280;51448;51.660;5.824;2022-07-18T13:15:55;102008.03;;;35.21;26.76
61119;BME280;51448;51.660;5.824;2022-07-18T13:18:23;102002.22;;;35.24;27.26
61119;BME280;51448;51.660;5.824;2022-07-18T13:20:51;102004.75;;;35.34;27.06
61119;BME280;51448;51.660;5.824;2022-07-18T13:23:18;101996.84;;;35.39;26.14
61119;BME280;51448;51.660;5.824;2022-07-18T13:25:46;101997.69;;;35.40;25.82
61119;BME280;51448;51.660;5.824;2022-07-18T13:28:13;101994.78;;;35.41;26.42
61119;BME280;51448;51.660;5.824;2022-07-18T13:30:41;101998.69;;;35.47;26.53
61119;BME280;51448;51.660;5.824;2022-07-18T13:33:09;101994.56;;;35.51;25.86
61119;BME280;51448;51.660;5.824;2022-07-18T13:35:36;101996.56;;;35.57;25.87
61119;BME280;51448;51.660;5.824;2022-07-18T13:38:04;101992.28;;;35.63;26.22
61119;BME280;51448;51.660;5.824;2022-07-18T13:40:31;101995.84;;;35.72;25.24
61119;BME280;51448;51.660;5.824;2022-07-18T13:42:59;101991.19;;;35.72;25.11
61119;BME280;51448;51.660;5.824;2022-07-18T13:45:27;101986.09;;;35.69;25.50
61119;BME280;51448;51.660;5.824;2022-07-18T13:47:55;101991.03;;;35.74;25.57
61119;BME280;51448;51.660;5.824;2022-07-18T13:50:23;101990.47;;;35.78;25.68